Time;durP1;ratioP1;P1;durP2;ratioP2;P2;SDS_P1;SDS_P2;PMS_P1;PMS_P2;Temp;Humidity;BMP_temperature;BMP_pressure;BME280_temperature;BME280_humidity;BME280_pressure;Samples;Min_cycle;Max_cycle;Signal;HPM_P1;HPM_P2
2024/01/21 00:12:15;;;;;;;37.15;26.92;;;;;;;;;;4881686;29;20053;-95
2024/01/21 00:15:00;;;;;;;40.50;27.30;;;;;;;;;;4866386;29;20028;-88
2024/01/21 00:17:26;;;;;;;35.00;27.15;;;;;;;;;;4866653;29;20093;-89
2024/01/21 00:29:03;;;;;;;31.20;23.92;;;;;;;;;;4882694;29;20064;-88
2024/01/21 00:31:51;;;;;;;32.67;24.90;;;;;;;;;;4866222;29;20424;-96
2024/01/21 00:34:42;;;;;;;31.95;26.20;;;;;;;;;;4866970;29;20479;-96
2024/01/21 00:40:00;;;;;;;27.73;23.70;;;;;;;;;;4884635;29;20039;-95
2024/01/21 00:51:38;;;;;;;33.03;27.00;;;;;;;;;;4901736;23;20105;-89
2024/01/21 00:54:22;;;;;;;31.75;25.65;;;;;;;;;;4868329;29;20037;-96
2024/01/21 00:57:10;;;;;;;32.13;25.98;;;;;;;;;;4877579;29;20051;-95
2024/01/21 00:59:45;;;;;;;36.38;28.40;;;;;;;;;;4904364;23;20057;-96
2024/01/21 01:02:27;;;;;;;40.92;28.65;;;;;;;;;;4867699;29;20025;-95
2024/01/21 01:05:05;;;;;;;40.60;30.33;;;;;;;;;;4867074;29;20033;-96
2024/01/21 01:07:54;;;;;;;43.10;28.83;;;;;;;;;;4866377;29;20033;-96
2024/01/21 01:25:31;;;;;;;32.33;24.77;;;;;;;;;;5009309;23;20053;-96
2024/01/21 01:28:21;;;;;;;67.07;37.85;;;;;;;;;;4867390;29;20052;-94
2024/01/21 01:31:12;;;;;;;41.38;30.42;;;;;;;;;;4860203;29;20033;-96
2024/01/21 01:39:21;;;;;;;42.40;29.87;;;;;;;;;;4899770;29;20079;-96
2024/01/21 01:41:50;;;;;;;71.10;35.88;;;;;;;;;;4873613;29;20028;-96
2024/01/21 01:44:25;;;;;;;102.05;44.22;;;;;;;;;;4892400;29;20027;-94
2024/01/21 01:55:33;;;;;;;48.95;30.90;;;;;;;;;;4957774;23;20590;-90
2024/01/21 01:58:31;;;;;;;45.20;31.95;;;;;;;;;;4865235;29;20045;-96
2024/01/21 02:01:09;;;;;;;68.32;35.47;;;;;;;;;;4864548;29;20026;-95
2024/01/21 02:21:24;;;;;;;44.10;31.55;;;;;;;;;;4903281;29;20042;-95
2024/01/21 02:27:13;;;;;;;36.80;30.13;;;;;;;;;;4888494;29;20051;-95
2024/01/21 02:29:50;;;;;;;36.00;31.27;;;;;;;;;;5084563;23;20049;-95
2024/01/21 02:44:34;;;;;;;52.45;38.33;;;;;;;;;;4903376;29;20091;-96
2024/01/21 02:50:07;;;;;;;44.72;36.20;;;;;;;;;;5036890;23;20060;-96
2024/01/21 02:52:36;;;;;;;42.70;35.40;;;;;;;;;;4868092;29;20047;-95
2024/01/21 02:55:03;;;;;;;46.75;38.22;;;;;;;;;;4867278;29;20032;-89
2024/01/21 03:06:41;;;;;;;47.25;40.10;;;;;;;;;;5058327;23;20751;-96
2024/01/21 03:18:46;;;;;;;43.63;38.40;;;;;;;;;;4873463;29;20053;-96
2024/01/21 03:33:01;;;;;;;40.50;33.58;;;;;;;;;;4889674;29;20043;-89
2024/01/21 03:35:51;;;;;;;36.13;32.53;;;;;;;;;;4874091;29;20488;-96
2024/01/21 03:41:11;;;;;;;37.05;33.42;;;;;;;;;;4885057;29;20418;-89
2024/01/21 03:49:42;;;;;;;36.55;32.72;;;;;;;;;;4834240;29;20045;-96
2024/01/21 03:52:18;;;;;;;39.85;35.83;;;;;;;;;;4847280;29;20540;-96
2024/01/21 03:55:01;;;;;;;43.33;38.92;;;;;;;;;;4820202;29;20034;-96
2024/01/21 04:00:52;;;;;;;46.95;42.13;;;;;;;;;;5042692;23;20124;-96
2024/01/21 04:06:44;;;;;;;44.88;41.08;;;;;;;;;;4900532;23;20060;-95
2024/01/21 04:09:29;;;;;;;53.45;48.08;;;;;;;;;;4881594;29;20036;-96
2024/01/21 04:15:08;;;;;;;56.63;51.88;;;;;;;;;;4883529;29;20035;-96
2024/01/21 04:18:01;;;;;;;54.97;50.28;;;;;;;;;;4867366;29;20408;-96
2024/01/21 04:20:37;;;;;;;53.97;49.03;;;;;;;;;;4915501;23;20060;-96
2024/01/21 04:23:16;;;;;;;54.05;49.38;;;;;;;;;;4886935;29;20065;-95
2024/01/21 04:34:25;;;;;;;55.58;50.63;;;;;;;;;;4889823;29;20528;-96
2024/01/21 04:36:51;;;;;;;51.08;47.08;;;;;;;;;;4888132;29;20040;-89
2024/01/21 04:39:36;;;;;;;;;;;;;;;;;;;;;
2024/01/21 04:42:20;;;;;;;42.88;38.80;;;;;;;;;;4894921;29;20135;-95
2024/01/21 04:44:49;;;;;;;36.42;32.55;;;;;;;;;;4886893;29;20075;-95
2024/01/21 04:47:42;;;;;;;28.27;24.88;;;;;;;;;;4888526;29;20029;-96
2024/01/21 04:50:29;;;;;;;;;;;;;;;;;;;;;
2024/01/21 04:53:01;;;;;;;37.70;30.92;;;;;;;;;;4897212;29;20345;-96
2024/01/21 04:55:46;;;;;;;30.58;27.27;;;;;;;;;;4871590;29;20139;-96
2024/01/21 04:58:28;;;;;;;33.75;28.42;;;;;;;;;;4871044;29;20050;-96
2024/01/21 05:04:10;;;;;;;38.05;34.35;;;;;;;;;;4878584;29;20072;-96
2024/01/21 05:06:48;;;;;;;34.38;27.60;;;;;;;;;;4889769;29;20054;-93
2024/01/21 05:25:00;;;;;;;54.07;25.90;;;;;;;;;;4901422;23;20136;-96
2024/01/21 05:27:30;;;;;;;59.42;28.70;;;;;;;;;;4881608;29;20359;-95
2024/01/21 05:30:21;;;;;;;62.05;27.08;;;;;;;;;;4893496;29;20041;-96
2024/01/21 05:32:59;;;;;;;52.88;25.52;;;;;;;;;;4868818;29;20040;-96
2024/01/21 05:35:37;;;;;;;76.18;33.53;;;;;;;;;;4858071;29;20024;-96
2024/01/21 05:50:39;;;;;;;46.20;21.88;;;;;;;;;;4895555;29;20120;-89
2024/01/21 05:53:35;;;;;;;;;;;;;;;;;;;;;
2024/01/21 05:56:12;;;;;;;58.42;27.25;;;;;;;;;;4847855;29;20125;-95
2024/01/21 05:58:38;;;;;;;59.63;33.33;;;;;;;;;;4880853;29;20040;-89
2024/01/21 06:01:25;;;;;;;45.13;32.20;;;;;;;;;;4887950;29;20053;-95
2024/01/21 06:06:54;;;;;;;62.05;27.88;;;;;;;;;;4868872;29;20045;-95
2024/01/21 06:09:21;;;;;;;56.45;37.22;;;;;;;;;;4865978;29;20044;-90
2024/01/21 06:12:21;;;;;;;56.97;41.40;;;;;;;;;;4902003;29;20036;-96
2024/01/21 06:14:47;;;;;;;49.53;34.92;;;;;;;;;;4887272;29;20036;-94
2024/01/21 06:17:27;;;;;;;45.08;35.10;;;;;;;;;;4879902;29;20077;-96
2024/01/21 06:19:53;;;;;;;50.90;33.15;;;;;;;;;;4877776;29;20032;-89
2024/01/21 06:22:19;;;;;;;57.00;43.30;;;;;;;;;;4886955;29;20036;-90
2024/01/21 06:24:48;;;;;;;64.03;45.67;;;;;;;;;;4886189;29;20140;-95
2024/01/21 06:27:30;;;;;;;118.43;61.08;;;;;;;;;;4881292;29;20040;-90
2024/01/21 06:30:10;;;;;;;70.75;50.40;;;;;;;;;;4869064;29;20100;-95
2024/01/21 06:32:36;;;;;;;59.63;49.03;;;;;;;;;;4883569;29;20056;-90
2024/01/21 06:35:02;;;;;;;72.93;65.53;;;;;;;;;;4888215;29;20036;-90
2024/01/21 06:37:48;;;;;;;100.80;92.13;;;;;;;;;;4877811;29;20041;-95
2024/01/21 06:40:14;;;;;;;77.07;70.18;;;;;;;;;;4873481;29;20037;-88
2024/01/21 06:42:52;;;;;;;83.95;76.93;;;;;;;;;;4864092;29;20048;-95
2024/01/21 06:45:26;;;;;;;68.43;62.40;;;;;;;;;;4890910;24;20116;-96
2024/01/21 06:47:55;;;;;;;68.32;61.83;;;;;;;;;;4889637;29;20080;-94
2024/01/21 06:50:21;;;;;;;85.88;77.88;;;;;;;;;;4890008;29;20021;-92
2024/01/21 06:53:13;;;;;;;89.80;81.82;;;;;;;;;;4880463;29;20038;-96
2024/01/21 06:56:04;;;;;;;83.80;76.68;;;;;;;;;;4852633;29;20037;-89
2024/01/21 06:58:32;;;;;;;79.93;73.18;;;;;;;;;;4867148;29;20410;-88
2024/01/21 07:04:05;;;;;;;117.93;108.70;;;;;;;;;;4880136;29;20045;-90
2024/01/21 07:06:40;;;;;;;115.00;106.10;;;;;;;;;;4860996;29;20522;-95
2024/01/21 07:09:51;;;;;;;95.10;87.57;;;;;;;;;;4863033;29;20036;-96
2024/01/21 07:18:14;;;;;;;52.20;47.03;;;;;;;;;;4842828;29;20041;-88
2024/01/21 07:20:41;;;;;;;52.90;47.45;;;;;;;;;;4869932;29;20402;-88
2024/01/21 07:23:07;;;;;;;81.80;75.63;;;;;;;;;;4906834;23;20125;-92
2024/01/21 07:25:33;;;;;;;76.97;70.45;;;;;;;;;;5038473;23;20037;-89
2024/01/21 07:28:09;;;;;;;59.63;54.10;;;;;;;;;;4882237;29;20046;-94
2024/01/21 07:34:02;;;;;;;46.33;38.90;;;;;;;;;;4833874;29;20190;-94
2024/01/21 07:36:29;;;;;;;36.53;32.63;;;;;;;;;;4870365;29;20088;-89
2024/01/21 07:38:55;;;;;;;36.10;32.40;;;;;;;;;;4876105;29;20727;-88
2024/01/21 07:41:31;;;;;;;45.50;40.95;;;;;;;;;;4857551;29;20061;-86
2024/01/21 07:44:13;;;;;;;39.35;35.63;;;;;;;;;;4861635;29;20132;-96
2024/01/21 07:46:42;;;;;;;51.17;45.80;;;;;;;;;;4874289;29;20036;-89
2024/01/21 07:49:11;;;;;;;49.30;44.03;;;;;;;;;;4860251;29;20495;-95
2024/01/21 07:51:47;;;;;;;54.17;45.80;;;;;;;;;;4860203;29;20081;-96
2024/01/21 07:54:26;;;;;;;45.20;40.80;;;;;;;;;;4853924;29;20065;-96
2024/01/21 07:57:05;;;;;;;54.08;48.28;;;;;;;;;;4854134;29;20029;-96
2024/01/21 07:59:34;;;;;;;44.90;39.42;;;;;;;;;;4897802;23;20044;-90
2024/01/21 08:02:16;;;;;;;50.55;37.33;;;;;;;;;;4870617;29;20025;-96
2024/01/21 08:07:46;;;;;;;43.30;35.72;;;;;;;;;;4897322;29;20084;-91
2024/01/21 08:10:15;;;;;;;36.47;30.77;;;;;;;;;;4865052;29;20036;-91
2024/01/21 08:12:50;;;;;;;34.65;27.92;;;;;;;;;;4888548;29;20068;-95
2024/01/21 08:15:16;;;;;;;33.75;26.02;;;;;;;;;;4877494;29;20131;-88
2024/01/21 08:17:42;;;;;;;32.20;25.55;;;;;;;;;;4872681;29;20045;-88
2024/01/21 08:20:12;;;;;;;34.45;26.65;;;;;;;;;;4883230;29;20040;-89
2024/01/21 08:23:02;;;;;;;40.58;28.10;;;;;;;;;;4888368;29;20162;-89
2024/01/21 08:25:47;;;;;;;36.55;27.73;;;;;;;;;;4869366;29;20026;-93
2024/01/21 08:33:36;;;;;;;22.77;17.98;;;;;;;;;;5645752;23;20082;-94
2024/01/21 08:36:02;;;;;;;20.48;14.48;;;;;;;;;;5140644;23;20061;-88
2024/01/21 08:38:28;;;;;;;20.63;14.73;;;;;;;;;;4892050;29;20070;-88
2024/01/21 08:44:26;;;;;;;14.80;10.77;;;;;;;;;;4780214;30;20060;-92
2024/01/21 08:49:28;;;;;;;16.80;12.00;;;;;;;;;;5009662;23;20028;-93
2024/01/21 08:55:17;;;;;;;15.30;12.88;;;;;;;;;;5146722;23;20241;-94
2024/01/21 09:00:50;;;;;;;28.48;22.58;;;;;;;;;;4927009;23;20537;-94
2024/01/21 09:03:30;;;;;;;26.73;21.65;;;;;;;;;;4884049;29;20037;-91
2024/01/21 09:05:58;;;;;;;20.05;16.42;;;;;;;;;;4892224;29;20056;-89
2024/01/21 09:08:27;;;;;;;19.77;16.75;;;;;;;;;;4886692;29;20024;-96
2024/01/21 09:10:56;;;;;;;21.88;18.95;;;;;;;;;;4878165;29;20076;-91
2024/01/21 09:16:00;;;;;;;14.65;13.00;;;;;;;;;;4913222;23;20141;-91
2024/01/21 09:18:26;;;;;;;14.75;12.88;;;;;;;;;;4869882;29;20037;-93
2024/01/21 09:21:11;;;;;;;15.82;12.77;;;;;;;;;;4866672;29;20052;-96
2024/01/21 09:23:40;;;;;;;14.75;12.00;;;;;;;;;;4887369;29;20063;-96
2024/01/21 09:26:06;;;;;;;17.85;14.45;;;;;;;;;;4874115;29;20033;-90
2024/01/21 09:28:32;;;;;;;19.67;15.95;;;;;;;;;;4880194;29;20029;-90
2024/01/21 09:31:04;;;;;;;22.65;18.17;;;;;;;;;;4873691;29;20033;-96
2024/01/21 09:36:38;;;;;;;18.50;15.88;;;;;;;;;;4883908;29;20028;-90
2024/01/21 09:39:17;;;;;;;19.95;16.35;;;;;;;;;;4866025;29;20104;-89
2024/01/21 09:41:50;;;;;;;22.52;16.30;;;;;;;;;;4866953;29;20029;-90
2024/01/21 09:44:29;;;;;;;23.50;18.65;;;;;;;;;;4868480;29;20033;-96
2024/01/21 09:46:57;;;;;;;22.40;18.75;;;;;;;;;;4865277;29;20147;-90
2024/01/21 09:49:31;;;;;;;;;;;;;;;;;;4882182;29;20356;-90
2024/01/21 09:52:02;;;;;;;22.08;17.55;;;;;;;;;;4865354;29;19908;-96
2024/01/21 09:54:28;;;;;;;20.08;16.48;;;;;;;;;;5045884;23;20059;-90
2024/01/21 09:56:54;;;;;;;26.15;19.30;;;;;;;;;;4864267;29;20033;-90
2024/01/21 09:59:21;;;;;;;22.30;19.30;;;;;;;;;;4866920;29;20068;-90
2024/01/21 10:01:51;;;;;;;27.70;19.88;;;;;;;;;;4879539;29;20032;-90
2024/01/21 10:04:19;;;;;;;25.38;19.85;;;;;;;;;;4882600;29;20119;-90
2024/01/21 10:06:47;;;;;;;27.63;19.88;;;;;;;;;;4883384;29;20131;-90
2024/01/21 10:09:22;;;;;;;27.77;19.13;;;;;;;;;;4886095;29;20478;-90
2024/01/21 10:11:50;;;;;;;26.23;19.85;;;;;;;;;;4885654;29;20520;-90
2024/01/21 10:14:16;;;;;;;25.02;20.92;;;;;;;;;;4894558;29;20040;-91
2024/01/21 10:16:43;;;;;;;22.75;18.88;;;;;;;;;;4888640;29;20029;-90
2024/01/21 10:19:14;;;;;;;25.40;20.10;;;;;;;;;;4878369;29;20045;-90
2024/01/21 10:21:40;;;;;;;28.27;20.08;;;;;;;;;;4883028;29;20029;-89
2024/01/21 10:24:37;;;;;;;25.10;19.85;;;;;;;;;;4874635;29;20044;-96
2024/01/21 10:27:03;;;;;;;26.13;20.02;;;;;;;;;;4868562;29;20030;-91
2024/01/21 10:29:30;;;;;;;27.27;19.80;;;;;;;;;;4882867;29;20039;-90
2024/01/21 10:31:56;;;;;;;32.17;21.33;;;;;;;;;;4885441;29;20028;-92
2024/01/21 10:34:22;;;;;;;28.48;21.27;;;;;;;;;;4903799;29;20039;-90
2024/01/21 10:36:52;;;;;;;25.83;18.92;;;;;;;;;;4888931;29;20056;-91
2024/01/21 10:39:20;;;;;;;26.50;20.33;;;;;;;;;;4887046;29;20494;-88
2024/01/21 10:41:46;;;;;;;24.10;18.85;;;;;;;;;;4886379;29;20029;-92
2024/01/21 10:44:19;;;;;;;27.85;19.58;;;;;;;;;;4888973;29;20100;-96
2024/01/21 10:46:46;;;;;;;26.27;19.52;;;;;;;;;;4892519;29;20025;-90
2024/01/21 10:49:13;;;;;;;24.77;18.88;;;;;;;;;;4888639;29;20032;-96
2024/01/21 10:51:41;;;;;;;21.35;16.23;;;;;;;;;;4902076;29;20084;-90
2024/01/21 10:54:07;;;;;;;21.95;17.95;;;;;;;;;;4889764;29;20033;-89
2024/01/21 10:56:34;;;;;;;20.13;14.73;;;;;;;;;;4886645;29;20471;-90
2024/01/21 10:59:30;;;;;;;;;;;;;;;;;;;;;
2024/01/21 11:02:09;;;;;;;21.80;16.45;;;;;;;;;;4868715;29;20117;-93
2024/01/21 11:04:35;;;;;;;20.27;16.30;;;;;;;;;;4848413;29;20036;-96
2024/01/21 11:07:08;;;;;;;21.05;16.15;;;;;;;;;;4850461;29;20061;-95
2024/01/21 11:09:36;;;;;;;21.48;16.95;;;;;;;;;;4850997;29;20026;-90
2024/01/21 11:12:05;;;;;;;21.15;16.10;;;;;;;;;;4851424;29;20033;-94
2024/01/21 11:14:58;;;;;;;23.17;17.98;;;;;;;;;;4868595;29;20029;-95
2024/01/21 11:17:30;;;;;;;24.25;16.83;;;;;;;;;;4857213;29;20064;-90
2024/01/21 11:19:59;;;;;;;22.25;16.48;;;;;;;;;;4852324;29;20037;-93
2024/01/21 11:22:43;;;;;;;21.63;16.75;;;;;;;;;;4857935;29;20041;-96
2024/01/21 11:38:09;;;;;;;21.70;13.90;;;;;;;;;;4890744;29;20112;-91
2024/01/21 11:40:35;;;;;;;23.17;16.27;;;;;;;;;;4883210;29;20061;-90
2024/01/21 11:43:02;;;;;;;21.27;16.58;;;;;;;;;;4866837;29;20123;-90
2024/01/21 11:45:38;;;;;;;20.48;13.48;;;;;;;;;;4871641;29;20124;-95
2024/01/21 11:48:10;;;;;;;19.17;15.05;;;;;;;;;;4883120;29;20111;-90
2024/01/21 11:50:36;;;;;;;17.23;12.73;;;;;;;;;;4867412;29;20116;-90
2024/01/21 11:53:08;;;;;;;19.35;13.68;;;;;;;;;;4868059;29;20032;-96
2024/01/21 11:55:34;;;;;;;16.15;11.95;;;;;;;;;;4868856;29;20036;-90
2024/01/21 11:58:01;;;;;;;20.02;13.00;;;;;;;;;;4866067;29;20406;-90
2024/01/21 12:00:27;;;;;;;18.20;12.93;;;;;;;;;;4945142;23;20040;-91
2024/01/21 12:02:53;;;;;;;20.05;13.45;;;;;;;;;;5080053;23;20037;-88
2024/01/21 12:05:19;;;;;;;18.30;12.55;;;;;;;;;;4871578;29;20040;-90
2024/01/21 12:07:48;;;;;;;19.35;12.88;;;;;;;;;;4867738;29;20033;-95
2024/01/21 12:10:15;;;;;;;21.90;12.32;;;;;;;;;;4866572;29;20501;-89
2024/01/21 12:12:48;;;;;;;19.83;12.10;;;;;;;;;;4874414;29;20103;-89
2024/01/21 12:15:18;;;;;;;19.48;10.95;;;;;;;;;;4868927;29;20086;-93
2024/01/21 12:17:57;;;;;;;24.73;13.80;;;;;;;;;;4878675;29;20048;-94
2024/01/21 12:26:55;;;;;;;18.95;11.30;;;;;;;;;;4809202;29;20054;-96
2024/01/21 12:29:25;;;;;;;18.55;10.50;;;;;;;;;;4799189;29;20546;-95
2024/01/21 12:32:11;;;;;;;21.38;12.23;;;;;;;;;;4792172;29;20050;-94
2024/01/21 12:34:42;;;;;;;23.00;12.90;;;;;;;;;;4792536;29;20031;-92
2024/01/21 12:37:12;;;;;;;22.42;12.52;;;;;;;;;;4792426;29;20034;-93
2024/01/21 12:40:09;;;;;;;23.02;14.27;;;;;;;;;;4792656;29;20067;-96
2024/01/21 12:42:34;;;;;;;25.60;13.40;;;;;;;;;;4813506;29;20044;-95
2024/01/21 12:45:01;;;;;;;23.05;14.02;;;;;;;;;;4863486;29;20037;-92
2024/01/21 12:47:39;;;;;;;25.45;14.52;;;;;;;;;;4872382;29;20040;-92
2024/01/21 12:50:07;;;;;;;30.45;16.40;;;;;;;;;;4870821;29;20040;-96
2024/01/21 12:52:40;;;;;;;26.30;16.63;;;;;;;;;;4880999;29;20394;-94
2024/01/21 12:55:19;;;;;;;25.27;13.85;;;;;;;;;;4878077;29;20068;-96
2024/01/21 12:57:52;;;;;;;25.65;15.90;;;;;;;;;;4878189;29;20105;-96
2024/01/21 13:03:22;;;;;;;22.00;13.97;;;;;;;;;;5494636;23;20067;-92
2024/01/21 13:06:03;;;;;;;23.60;14.68;;;;;;;;;;4882789;29;20124;-95
2024/01/21 13:08:31;;;;;;;23.58;14.23;;;;;;;;;;4864667;29;20029;-89
2024/01/21 13:11:00;;;;;;;23.17;14.82;;;;;;;;;;4864685;29;20056;-87
2024/01/21 13:13:29;;;;;;;25.90;15.55;;;;;;;;;;4875909;29;20064;-90
2024/01/21 13:15:55;;;;;;;26.05;15.32;;;;;;;;;;4877097;29;20017;-90
2024/01/21 13:18:21;;;;;;;27.98;17.25;;;;;;;;;;4886056;29;20061;-89
2024/01/21 13:20:47;;;;;;;33.60;19.42;;;;;;;;;;4885141;29;20020;-89
2024/01/21 13:23:14;;;;;;;33.28;21.02;;;;;;;;;;4884043;29;20039;-89
2024/01/21 13:25:40;;;;;;;28.65;18.33;;;;;;;;;;4888759;29;20020;-93
2024/01/21 13:28:13;;;;;;;30.17;17.77;;;;;;;;;;4889604;29;20031;-91
2024/01/21 13:30:46;;;;;;;31.98;19.58;;;;;;;;;;4888797;29;20045;-92
2024/01/21 13:33:22;;;;;;;29.48;17.13;;;;;;;;;;4883971;29;20032;-94
2024/01/21 13:35:52;;;;;;;27.02;17.48;;;;;;;;;;4867437;29;20040;-91
2024/01/21 13:38:22;;;;;;;26.23;16.65;;;;;;;;;;4865885;29;20044;-93
2024/01/21 13:40:51;;;;;;;36.70;21.73;;;;;;;;;;4874228;29;20020;-92
2024/01/21 13:43:23;;;;;;;33.03;19.20;;;;;;;;;;4878488;29;20036;-90
2024/01/21 13:45:49;;;;;;;31.85;18.23;;;;;;;;;;4884887;29;20024;-91
2024/01/21 13:48:22;;;;;;;31.75;20.13;;;;;;;;;;4905293;29;20045;-90
2024/01/21 13:50:49;;;;;;;36.05;21.17;;;;;;;;;;4890100;29;20037;-91
2024/01/21 13:53:15;;;;;;;34.92;21.00;;;;;;;;;;4884189;29;20028;-93
2024/01/21 13:55:42;;;;;;;34.50;23.13;;;;;;;;;;4887606;29;20466;-94
2024/01/21 13:58:08;;;;;;;34.08;22.75;;;;;;;;;;4887102;29;20482;-92
2024/01/21 14:00:40;;;;;;;37.50;22.13;;;;;;;;;;4887479;29;20073;-91
2024/01/21 14:03:09;;;;;;;41.72;26.10;;;;;;;;;;4870818;29;20033;-92
2024/01/21 14:05:38;;;;;;;38.38;25.73;;;;;;;;;;4872891;29;20505;-92
2024/01/21 14:08:10;;;;;;;36.90;25.30;;;;;;;;;;4878065;29;20120;-94
2024/01/21 14:10:36;;;;;;;40.33;28.00;;;;;;;;;;4873304;29;20044;-91
2024/01/21 14:13:02;;;;;;;41.60;28.17;;;;;;;;;;4871179;29;20041;-93
2024/01/21 14:15:28;;;;;;;41.17;30.00;;;;;;;;;;4972368;23;20056;-91
2024/01/21 14:18:10;;;;;;;37.63;28.02;;;;;;;;;;4852528;29;20045;-94
2024/01/21 14:20:43;;;;;;;39.20;31.98;;;;;;;;;;4853797;29;20447;-96
2024/01/21 14:23:09;;;;;;;44.47;32.28;;;;;;;;;;4854659;29;20060;-92
2024/01/21 14:25:41;;;;;;;43.53;34.05;;;;;;;;;;4864935;29;20475;-91
2024/01/21 14:28:07;;;;;;;41.85;36.40;;;;;;;;;;4848769;29;20025;-90
2024/01/21 14:30:36;;;;;;;45.33;40.38;;;;;;;;;;4862978;29;20028;-96
2024/01/21 14:33:03;;;;;;;43.55;38.95;;;;;;;;;;4891303;29;20100;-90
2024/01/21 14:35:51;;;;;;;46.22;41.35;;;;;;;;;;4888122;29;20064;-91
2024/01/21 14:38:17;;;;;;;46.30;41.47;;;;;;;;;;4887446;29;20506;-91
2024/01/21 14:40:44;;;;;;;47.88;42.28;;;;;;;;;;4888253;29;20041;-91
2024/01/21 14:43:10;;;;;;;43.83;38.63;;;;;;;;;;4889986;29;20032;-91
2024/01/21 14:45:36;;;;;;;35.90;23.40;;;;;;;;;;4884052;29;20029;-90
2024/01/21 14:48:03;;;;;;;43.38;29.42;;;;;;;;;;4871408;29;20033;-91
2024/01/21 14:50:29;;;;;;;44.72;29.05;;;;;;;;;;4882970;29;20033;-91
2024/01/21 14:52:55;;;;;;;45.25;26.85;;;;;;;;;;4890046;29;20537;-96
2024/01/21 14:55:21;;;;;;;41.13;23.15;;;;;;;;;;4896008;23;20049;-90
2024/01/21 14:58:02;;;;;;;37.97;22.83;;;;;;;;;;4876439;29;20009;-90
2024/01/21 15:00:28;;;;;;;43.40;25.48;;;;;;;;;;4878863;29;20042;-91
2024/01/21 15:02:56;;;;;;;46.35;26.42;;;;;;;;;;4886099;29;20476;-91
2024/01/21 15:05:23;;;;;;;46.40;27.27;;;;;;;;;;4877682;29;20045;-93
2024/01/21 15:07:49;;;;;;;41.95;26.55;;;;;;;;;;4869554;29;20033;-91
2024/01/21 15:10:15;;;;;;;42.25;25.20;;;;;;;;;;4867005;29;20036;-91
2024/01/21 15:12:41;;;;;;;34.28;23.08;;;;;;;;;;4879992;29;20037;-91
2024/01/21 15:21:26;;;;;;;51.87;28.03;;;;;;;;;;5499385;23;20063;-96
2024/01/21 15:23:53;;;;;;;54.75;33.70;;;;;;;;;;4867236;29;20052;-93
2024/01/21 15:26:20;;;;;;;61.25;46.15;;;;;;;;;;4888788;29;20044;-94
2024/01/21 15:28:58;;;;;;;52.55;39.30;;;;;;;;;;4890267;29;20481;-95
2024/01/21 15:31:30;;;;;;;53.55;36.92;;;;;;;;;;4928549;23;20053;-89
2024/01/21 15:37:16;;;;;;;61.55;43.38;;;;;;;;;;4910917;29;20047;-96
2024/01/21 15:39:52;;;;;;;57.10;37.95;;;;;;;;;;4871439;29;20045;-96
2024/01/21 15:42:25;;;;;;;61.70;48.42;;;;;;;;;;4867569;29;20121;-95
2024/01/21 15:44:51;;;;;;;76.82;65.35;;;;;;;;;;4866066;29;20478;-90
2024/01/21 15:47:26;;;;;;;84.72;73.22;;;;;;;;;;4866372;29;20060;-96
2024/01/21 15:52:59;;;;;;;98.03;88.32;;;;;;;;;;4885293;29;20414;-96
2024/01/21 15:55:42;;;;;;;105.15;95.10;;;;;;;;;;4868337;29;20033;-94
2024/01/21 15:58:08;;;;;;;104.75;94.50;;;;;;;;;;4870453;29;20037;-88
2024/01/21 16:00:47;;;;;;;91.57;81.85;;;;;;;;;;4866794;29;20080;-96
2024/01/21 16:03:17;;;;;;;87.05;76.18;;;;;;;;;;4885175;29;20607;-89
2024/01/21 16:05:43;;;;;;;65.95;47.67;;;;;;;;;;4867337;29;20044;-92
2024/01/21 16:08:12;;;;;;;69.10;42.10;;;;;;;;;;4868277;29;20025;-94
2024/01/21 16:10:47;;;;;;;65.45;38.78;;;;;;;;;;4867503;29;20553;-96
2024/01/21 16:13:16;;;;;;;72.68;40.15;;;;;;;;;;4869237;29;20489;-96
2024/01/21 16:15:43;;;;;;;71.07;36.92;;;;;;;;;;4866868;29;20065;-90
2024/01/21 16:18:30;;;;;;;76.35;38.22;;;;;;;;;;4867679;29;20048;-96
2024/01/21 16:21:00;;;;;;;79.53;37.75;;;;;;;;;;4870579;29;20505;-96
2024/01/21 16:26:50;;;;;;;82.63;45.80;;;;;;;;;;4804353;29;20095;-93
2024/01/21 16:29:19;;;;;;;78.13;37.88;;;;;;;;;;4791347;29;20031;-96
2024/01/21 16:31:48;;;;;;;78.35;35.63;;;;;;;;;;4878331;29;20059;-96
2024/01/21 16:34:29;;;;;;;76.93;34.78;;;;;;;;;;4901828;29;20368;-88
2024/01/21 16:37:16;;;;;;;79.63;36.10;;;;;;;;;;4900348;29;20033;-94
2024/01/21 16:39:52;;;;;;;70.13;33.38;;;;;;;;;;4922625;23;20060;-96
2024/01/21 16:42:35;;;;;;;72.65;34.40;;;;;;;;;;4864355;29;20098;-96
2024/01/21 16:45:13;;;;;;;79.43;34.58;;;;;;;;;;4862573;29;20030;-91
2024/01/21 16:47:45;;;;;;;69.88;33.78;;;;;;;;;;4846559;29;20034;-92
2024/01/21 16:50:11;;;;;;;74.82;35.63;;;;;;;;;;4845263;29;20090;-93
2024/01/21 16:52:44;;;;;;;81.35;35.10;;;;;;;;;;4845621;29;20033;-95
2024/01/21 16:55:11;;;;;;;69.78;34.50;;;;;;;;;;4845475;29;20038;-94
2024/01/21 16:58:14;;;;;;;80.72;36.67;;;;;;;;;;4845103;29;20060;-93
2024/01/21 17:01:04;;;;;;;73.00;35.05;;;;;;;;;;4845645;29;20146;-94
2024/01/21 17:03:42;;;;;;;76.65;36.42;;;;;;;;;;4845453;29;20044;-92
2024/01/21 17:06:11;;;;;;;72.53;35.13;;;;;;;;;;4849448;29;20033;-90
2024/01/21 17:08:45;;;;;;;70.47;35.75;;;;;;;;;;4850200;29;20522;-90
2024/01/21 17:11:12;;;;;;;70.57;34.25;;;;;;;;;;4850127;29;20025;-91
2024/01/21 17:13:38;;;;;;;69.63;34.05;;;;;;;;;;4873175;29;20040;-92
2024/01/21 17:16:17;;;;;;;69.43;33.35;;;;;;;;;;4912365;23;20055;-94
2024/01/21 17:21:41;;;;;;;61.08;30.13;;;;;;;;;;4939724;23;20165;-96
2024/01/21 17:24:11;;;;;;;66.70;33.60;;;;;;;;;;4866460;29;20037;-91
2024/01/21 17:26:41;;;;;;;66.57;32.72;;;;;;;;;;4866186;29;20588;-91
2024/01/21 17:31:58;;;;;;;79.75;38.85;;;;;;;;;;4905812;23;20140;-94
2024/01/21 17:34:30;;;;;;;79.07;36.25;;;;;;;;;;4880061;29;20048;-91
2024/01/21 17:40:06;;;;;;;77.20;34.85;;;;;;;;;;4917552;23;20436;-93
2024/01/21 17:42:41;;;;;;;81.90;39.28;;;;;;;;;;4871635;29;20494;-94
2024/01/21 17:48:17;;;;;;;79.50;35.72;;;;;;;;;;4900989;29;20089;-96
2024/01/21 18:00:17;;;;;;;82.32;34.88;;;;;;;;;;4883570;29;20563;-96
2024/01/21 18:02:59;;;;;;;72.38;34.97;;;;;;;;;;4868211;29;20064;-96
2024/01/21 18:05:34;;;;;;;85.38;37.25;;;;;;;;;;4866621;29;20033;-96
2024/01/21 18:08:12;;;;;;;83.20;39.22;;;;;;;;;;4864284;29;20033;-92
2024/01/21 18:16:38;;;;;;;80.20;39.85;;;;;;;;;;4825255;29;20030;-92
2024/01/21 18:19:07;;;;;;;87.65;43.75;;;;;;;;;;4870730;29;20083;-93
2024/01/21 18:21:56;;;;;;;107.47;47.47;;;;;;;;;;4863741;29;20030;-96
2024/01/21 18:24:42;;;;;;;107.30;48.78;;;;;;;;;;4883776;23;20076;-93
2024/01/21 18:27:18;;;;;;;104.05;47.63;;;;;;;;;;4901472;29;20024;-93
2024/01/21 18:29:45;;;;;;;101.80;46.83;;;;;;;;;;4902305;29;20505;-96
2024/01/21 18:32:23;;;;;;;74.90;39.13;;;;;;;;;;4920820;29;20108;-92
2024/01/21 18:37:55;;;;;;;77.70;39.85;;;;;;;;;;4908692;29;20177;-93
2024/01/21 18:40:21;;;;;;;105.93;47.72;;;;;;;;;;4904050;29;20028;-93
2024/01/21 18:42:50;;;;;;;89.90;44.83;;;;;;;;;;4902969;29;20040;-96
2024/01/21 18:45:19;;;;;;;101.05;47.75;;;;;;;;;;4905134;29;20087;-91
2024/01/21 18:47:57;;;;;;;106.35;48.33;;;;;;;;;;4907433;29;20031;-95
2024/01/21 18:50:26;;;;;;;91.68;44.35;;;;;;;;;;4906411;29;20036;-92
2024/01/21 18:53:16;;;;;;;;;;;;;;;;;;;;;
2024/01/21 18:56:04;;;;;;;88.43;43.35;;;;;;;;;;4931966;29;20062;-96
2024/01/21 18:58:56;;;;;;;100.65;46.63;;;;;;;;;;4905060;29;20036;-93
2024/01/21 19:01:23;;;;;;;102.07;46.55;;;;;;;;;;5241898;23;20019;-89
2024/01/21 19:03:49;;;;;;;102.95;49.65;;;;;;;;;;4887919;29;20036;-92
2024/01/21 19:10:12;;;;;;;78.80;39.72;;;;;;;;;;4826855;29;20232;-91
2024/01/21 19:21:27;;;;;;;80.60;36.50;;;;;;;;;;4893495;29;20128;-96
2024/01/21 19:24:11;;;;;;;88.60;42.50;;;;;;;;;;4887946;29;20028;-94
2024/01/21 19:30:03;;;;;;;83.65;39.40;;;;;;;;;;4881556;29;20075;-90
2024/01/21 19:38:20;;;;;;;80.05;37.72;;;;;;;;;;4900283;29;20101;-95
2024/01/21 19:40:47;;;;;;;84.97;42.65;;;;;;;;;;4871167;29;20025;-90
2024/01/21 19:43:13;;;;;;;83.72;42.05;;;;;;;;;;4866371;29;20029;-91
2024/01/21 19:45:39;;;;;;;92.78;42.88;;;;;;;;;;4867274;29;20033;-96
2024/01/21 19:48:08;;;;;;;92.63;44.28;;;;;;;;;;4867358;29;20028;-95
2024/01/21 19:50:54;;;;;;;104.85;47.63;;;;;;;;;;4883826;29;20036;-96
2024/01/21 20:00:16;;;;;;;88.50;42.25;;;;;;;;;;4818847;29;20084;-94
2024/01/21 20:03:01;;;;;;;81.93;40.90;;;;;;;;;;4856395;29;20123;-94
2024/01/21 20:05:56;;;;;;;100.90;45.80;;;;;;;;;;4884928;29;20141;-95
2024/01/21 20:11:45;;;;;;;92.25;45.60;;;;;;;;;;4829275;29;20038;-95
2024/01/21 20:14:47;;;;;;;86.75;42.38;;;;;;;;;;4886330;29;20032;-96
2024/01/21 20:17:13;;;;;;;86.57;44.83;;;;;;;;;;4875883;29;20478;-90
2024/01/21 20:19:39;;;;;;;107.47;51.30;;;;;;;;;;4880143;29;20045;-90
2024/01/21 20:22:12;;;;;;;141.75;60.08;;;;;;;;;;4866282;29;20107;-89
2024/01/21 20:24:39;;;;;;;130.43;56.05;;;;;;;;;;4857837;29;20022;-90